KSPG/SPG METAR and TAF weather

Enter ICAO airport designator
Station Type Date Time Source
KSPG METAR 2022/01/19 19:53 UTC NOAA

KSPG 191953Z 00000KT 10SM CLR 22/12 A3014 RMK AO2 SLP207 T02170122


Station Type Date Time Source
KSPG Decoded METAR 2022/01/19 19:53 UTC NOAA

ST PETERSBURG WHITTED AIRPORT , FL, United States (KSPG) 27-46N 082-38W 2M
Jan 19, 2022 - 02:53 PM EST / 2022.01.19 1953 UTC
Wind: Calm:0
Visibility: 10 mile(s):0
Sky conditions: clear
Temperature: 71.1 F (21.7 C)
Dew Point: 54.0 F (12.2 C)
Relative Humidity: 54%
Pressure (altimeter): 30.14 in. Hg (1020 hPa)
ob: KSPG 191953Z 00000KT 10SM CLR 22/12 A3014 RMK AO2 SLP207 T02170122
cycle: 20

Station Type Date Time Source
KSPG TAF UTC NOAA

Error!

Example: see airport list